createdAt,value
2022-11-01T00:01:09.706Z,98596.05
2022-11-01T00:03:42.053Z,98591.23
2022-11-01T00:06:18.744Z,98591.88
2022-11-01T00:08:50.813Z,98588.88
2022-11-01T00:11:23.070Z,98589.73
2022-11-01T00:13:54.975Z,98590.70
2022-11-01T00:16:27.127Z,98587.20
2022-11-01T00:18:59.288Z,98586.87
2022-11-01T00:21:31.197Z,98589.16
2022-11-01T00:24:03.124Z,98582.23
2022-11-01T00:26:35.187Z,98581.64
2022-11-01T00:29:08.540Z,98584.48
2022-11-01T00:31:42.734Z,98586.63
2022-11-01T00:34:14.669Z,98586.48
2022-11-01T00:36:46.682Z,98585.34
2022-11-01T00:39:18.686Z,98580.42
2022-11-01T00:41:51.696Z,98575.81
2022-11-01T00:44:23.697Z,98574.81
2022-11-01T00:46:55.646Z,98571.58
2022-11-01T00:49:28.026Z,98574.32
2022-11-01T00:51:59.968Z,98569.64
2022-11-01T00:54:31.876Z,98560.21
2022-11-01T00:57:04.001Z,98556.24
2022-11-01T00:59:40.648Z,98551.80
2022-11-01T01:02:13.227Z,98550.75
2022-11-01T01:04:48.527Z,98541.31
2022-11-01T01:07:20.566Z,98538.63
2022-11-01T01:09:52.479Z,98535.83
2022-11-01T01:12:24.808Z,98531.01
2022-11-01T01:14:56.683Z,98533.36
2022-11-01T01:17:31.310Z,98533.70
2022-11-01T01:20:07.573Z,98528.45
2022-11-01T01:22:39.505Z,98524.64
2022-11-01T01:25:12.303Z,98521.67
2022-11-01T01:27:44.337Z,98516.52
2022-11-01T01:30:16.730Z,98513.05
2022-11-01T01:32:48.854Z,98507.54
2022-11-01T01:35:21.202Z,98502.82
2022-11-01T01:37:53.332Z,98492.40
2022-11-01T01:40:25.217Z,98482.96
2022-11-01T01:42:57.086Z,98480.26
2022-11-01T01:45:40.668Z,98478.17
2022-11-01T01:48:22.574Z,98476.48
2022-11-01T01:50:59.762Z,98479.39
2022-11-01T01:53:35.265Z,98489.73
2022-11-01T01:56:12.996Z,98495.84
2022-11-01T01:58:47.330Z,98501.11
2022-11-01T02:01:19.401Z,98498.95
2022-11-01T02:03:53.009Z,98496.31
2022-11-01T02:06:27.116Z,98497.20
2022-11-01T02:09:01.677Z,98494.95
2022-11-01T02:11:33.714Z,98490.21
2022-11-01T02:14:06.183Z,98487.83
2022-11-01T02:16:53.308Z,98490.11
2022-11-01T02:19:55.979Z,98495.52
2022-11-01T02:22:45.429Z,98491.82
2022-11-01T02:25:51.508Z,98491.88
2022-11-01T02:28:40.756Z,98498.05
2022-11-01T02:31:33.134Z,98489.61
2022-11-01T02:34:06.283Z,98477.73
2022-11-01T02:36:45.530Z,98469.70
2022-11-01T02:39:25.232Z,98463.80
2022-11-01T02:42:04.544Z,98470.66
2022-11-01T02:44:41.209Z,98469.09
2022-11-01T02:47:14.218Z,98479.84
2022-11-01T02:49:49.419Z,98486.04
2022-11-01T02:52:24.856Z,98483.05
2022-11-01T02:55:00.263Z,98477.98
2022-11-01T02:57:37.311Z,98470.90
2022-11-01T03:00:23.796Z,98466.12
2022-11-01T03:03:05.906Z,98458.91
2022-11-01T03:05:47.094Z,98461.33
2022-11-01T03:08:31.915Z,98472.63
2022-11-01T03:11:12.781Z,98472.84
2022-11-01T03:13:59.213Z,98470.56
2022-11-01T03:16:36.942Z,98473.38
2022-11-01T03:19:21.806Z,98476.20
2022-11-01T03:22:00.583Z,98477.30
2022-11-01T03:24:36.483Z,98476.20
2022-11-01T03:27:16.851Z,98475.80
2022-11-01T03:29:56.985Z,98479.70
2022-11-01T03:32:33.765Z,98475.81
2022-11-01T03:35:09.784Z,98474.91
2022-11-01T03:37:45.274Z,98473.45
2022-11-01T03:40:20.348Z,98475.44
2022-11-01T03:42:55.701Z,98472.64
2022-11-01T03:45:29.416Z,98474.33
2022-11-01T03:48:03.141Z,98476.89
2022-11-01T03:50:37.179Z,98475.91
2022-11-01T03:53:09.407Z,98478.88
2022-11-01T03:55:41.700Z,98473.34
2022-11-01T03:58:13.996Z,98474.48
2022-11-01T04:00:47.804Z,98468.31
2022-11-01T04:03:19.789Z,98463.36
2022-11-01T04:05:54.829Z,98460.00
2022-11-01T04:08:27.264Z,98456.45
2022-11-01T04:10:59.284Z,98454.45
2022-11-01T04:13:31.892Z,98454.52
2022-11-01T04:16:23.907Z,98455.91
2022-11-01T04:19:17.087Z,98455.78
2022-11-01T04:21:49.367Z,98452.96
2022-11-01T04:24:21.880Z,98450.29
2022-11-01T04:26:54.199Z,98448.98
2022-11-01T04:29:26.174Z,98449.10
2022-11-01T04:31:58.169Z,98451.84
2022-11-01T04:34:45.774Z,98452.30
2022-11-01T04:37:18.124Z,98453.16
2022-11-01T04:39:52.581Z,98445.40
2022-11-01T04:42:24.757Z,98436.80
2022-11-01T04:44:56.733Z,98431.26
2022-11-01T04:47:28.725Z,98427.38
2022-11-01T04:50:00.677Z,98423.82
2022-11-01T04:52:32.975Z,98424.70
2022-11-01T04:55:05.426Z,98428.01
2022-11-01T04:57:41.865Z,98434.07
2022-11-01T05:00:16.291Z,98437.84
2022-11-01T05:02:48.264Z,98436.59
2022-11-01T05:05:20.670Z,98435.58
2022-11-01T05:07:52.761Z,98428.35
2022-11-01T05:10:24.711Z,98420.25
2022-11-01T05:12:56.916Z,98414.49
2022-11-01T05:15:29.325Z,98409.36
2022-11-01T05:18:01.944Z,98419.42
2022-11-01T05:20:34.173Z,98418.01
2022-11-01T05:23:07.513Z,98423.71
2022-11-01T05:25:39.446Z,98418.24
2022-11-01T05:28:14.903Z,98414.48
2022-11-01T05:30:46.828Z,98416.15
2022-11-01T05:33:19.067Z,98418.50
2022-11-01T05:35:50.980Z,98422.70
2022-11-01T05:38:22.996Z,98427.83
2022-11-01T05:40:54.952Z,98429.34
2022-11-01T05:43:29.719Z,98423.29
2022-11-01T05:46:04.089Z,98415.45
2022-11-01T05:48:36.250Z,98417.55
2022-11-01T05:51:08.522Z,98421.92
2022-11-01T05:53:40.614Z,98424.29
2022-11-01T05:56:12.545Z,98425.59
2022-11-01T05:58:46.826Z,98423.98
2022-11-01T06:01:18.859Z,98419.44
2022-11-01T06:03:53.007Z,98420.77
2022-11-01T06:06:24.924Z,98419.04
2022-11-01T06:08:57.850Z,98417.02
2022-11-01T06:11:30.488Z,98420.88
2022-11-01T06:14:02.379Z,98420.21
2022-11-01T06:16:35.010Z,98421.95
2022-11-01T06:19:07.054Z,98420.06
2022-11-01T06:21:38.883Z,98423.77
2022-11-01T06:24:12.900Z,98428.48
2022-11-01T06:26:46.423Z,98429.85
2022-11-01T06:29:18.717Z,98432.38
2022-11-01T06:31:50.877Z,98428.89
2022-11-01T06:34:22.929Z,98432.41
2022-11-01T06:36:54.881Z,98433.48
2022-11-01T06:39:28.049Z,98435.09
2022-11-01T06:42:01.182Z,98434.27
2022-11-01T06:44:33.313Z,98435.77
2022-11-01T06:47:05.322Z,98432.40
2022-11-01T06:49:37.291Z,98425.86
2022-11-01T06:52:09.774Z,98428.30
2022-11-01T06:54:41.880Z,98426.27
2022-11-01T06:57:14.706Z,98436.88
2022-11-01T06:59:46.625Z,98445.65
2022-11-01T07:02:25.686Z,98453.79
2022-11-01T07:05:00.657Z,98455.15
2022-11-01T07:07:33.006Z,98454.96
2022-11-01T07:10:05.670Z,98451.73
2022-11-01T07:12:37.658Z,98445.86
2022-11-01T07:15:11.318Z,98444.81
2022-11-01T07:17:44.153Z,98444.95
2022-11-01T07:20:16.230Z,98444.31
2022-11-01T07:22:49.446Z,98448.84
2022-11-01T07:25:21.441Z,98446.88
2022-11-01T07:27:53.374Z,98439.90
2022-11-01T07:30:25.497Z,98439.90
2022-11-01T07:33:00.464Z,98437.77
2022-11-01T07:35:33.381Z,98427.48
2022-11-01T07:38:09.813Z,98421.42
2022-11-01T07:40:49.437Z,98417.36
2022-11-01T07:43:21.780Z,98415.60
2022-11-01T07:45:53.814Z,98413.59
2022-11-01T07:48:25.898Z,98409.34
2022-11-01T07:51:05.695Z,98407.81
2022-11-01T07:53:38.471Z,98409.94
2022-11-01T07:56:10.939Z,98407.70
2022-11-01T07:58:43.674Z,98409.77
2022-11-01T08:01:16.105Z,98411.92
2022-11-01T08:03:49.336Z,98414.82
2022-11-01T08:08:54.119Z,98414.21
2022-11-01T08:11:26.083Z,98417.20
2022-11-01T08:14:02.828Z,98419.49
2022-11-01T08:16:38.109Z,98418.70
2022-11-01T08:19:11.528Z,98422.30
2022-11-01T08:21:44.471Z,98427.43
2022-11-01T08:24:16.571Z,98433.58
2022-11-01T08:26:54.126Z,98435.09
2022-11-01T08:29:26.048Z,98437.60
2022-11-01T08:31:58.057Z,98444.05
2022-11-01T08:34:30.917Z,98444.20
2022-11-01T08:37:06.741Z,98439.17
2022-11-01T08:39:38.644Z,98436.02
2022-11-01T08:42:12.690Z,98431.98
2022-11-01T08:44:44.721Z,98425.59
2022-11-01T08:47:16.900Z,98415.96
2022-11-01T08:49:48.889Z,98422.36
2022-11-01T08:52:20.867Z,98424.39
2022-11-01T08:54:52.822Z,98427.70
2022-11-01T08:57:24.971Z,98430.47
2022-11-01T09:00:00.028Z,98423.60
2022-11-01T09:02:32.482Z,98424.73
2022-11-01T09:05:06.635Z,98431.84
2022-11-01T09:07:39.885Z,98432.77
2022-11-01T09:10:13.454Z,98431.44
2022-11-01T09:12:46.541Z,98432.45
2022-11-01T09:15:18.860Z,98424.77
2022-11-01T09:17:50.758Z,98427.10
2022-11-01T09:20:24.579Z,98434.41
2022-11-01T09:22:56.590Z,98440.53
2022-11-01T09:25:30.729Z,98443.04
2022-11-01T09:28:02.879Z,98443.54
2022-11-01T09:30:35.018Z,98442.46
2022-11-01T09:33:08.914Z,98442.38
2022-11-01T09:35:40.783Z,98440.93
2022-11-01T09:38:12.751Z,98440.02
2022-11-01T09:40:47.028Z,98439.29
2022-11-01T09:43:24.887Z,98434.58
2022-11-01T09:45:59.434Z,98432.30
2022-11-01T09:48:34.312Z,98431.84
2022-11-01T09:51:11.925Z,98432.11
2022-11-01T09:53:44.250Z,98426.51
2022-11-01T09:56:22.746Z,98420.95
2022-11-01T09:59:02.963Z,98417.38
2022-11-01T10:01:49.556Z,98414.93
2022-11-01T10:04:46.330Z,98414.56
2022-11-01T10:07:25.297Z,98417.39
2022-11-01T10:10:12.873Z,98416.20
2022-11-01T10:13:01.201Z,98411.40
2022-11-01T10:15:51.030Z,98407.56
2022-11-01T10:18:30.407Z,98408.78
2022-11-01T10:21:06.203Z,98400.80
2022-11-01T10:23:48.137Z,98398.64
2022-11-01T10:26:27.882Z,98387.90
2022-11-01T10:29:08.948Z,98376.98
2022-11-01T10:31:51.851Z,98368.76
2022-11-01T10:34:29.792Z,98369.23
2022-11-01T10:37:15.772Z,98370.70
2022-11-01T10:39:58.966Z,98369.61
2022-11-01T10:42:33.689Z,98365.60
2022-11-01T10:45:09.274Z,98357.79
2022-11-01T10:47:43.523Z,98364.58
2022-11-01T10:50:22.009Z,98373.69
2022-11-01T10:52:57.434Z,98378.20
2022-11-01T10:55:35.400Z,98355.89
2022-11-01T10:58:14.586Z,98344.25
2022-11-01T11:00:47.416Z,98342.42
2022-11-01T11:03:24.429Z,98328.20
2022-11-01T11:06:01.095Z,98330.51
2022-11-01T11:08:34.902Z,98339.52
2022-11-01T11:11:14.097Z,98321.83
2022-11-01T11:13:50.230Z,98315.71
2022-11-01T11:16:31.329Z,98317.52
2022-11-01T11:19:19.484Z,98332.64
2022-11-01T11:21:54.091Z,98327.79
2022-11-01T11:24:31.859Z,98328.00
2022-11-01T11:27:11.807Z,98328.33
2022-11-01T11:29:49.277Z,98331.61
2022-11-01T11:32:25.111Z,98334.55
2022-11-01T11:34:59.534Z,98330.28
2022-11-01T11:37:35.972Z,98338.33
2022-11-01T11:40:21.100Z,98337.98
2022-11-01T11:42:54.964Z,98334.11
2022-11-01T11:45:29.886Z,98333.61
2022-11-01T11:48:23.971Z,98331.34
2022-11-01T11:51:04.261Z,98334.13
2022-11-01T11:53:36.241Z,98331.45
2022-11-01T11:56:14.659Z,98339.36
2022-11-01T11:58:50.208Z,98340.20
2022-11-01T12:01:25.946Z,98329.02
2022-11-01T12:04:00.802Z,98344.63
2022-11-01T12:06:38.885Z,98350.44
2022-11-01T12:09:43.926Z,98354.11
2022-11-01T12:12:23.821Z,98358.33
2022-11-01T12:14:56.806Z,98359.42
2022-11-01T12:17:46.931Z,98357.04
2022-11-01T12:20:20.950Z,98349.31
2022-11-01T12:22:59.475Z,98347.05
2022-11-01T12:25:32.913Z,98346.67
2022-11-01T12:32:54.348Z,98354.67
2022-11-01T12:38:54.538Z,98362.23
2022-11-01T12:42:37.246Z,98366.38
2022-11-01T12:45:53.586Z,98362.84
2022-11-01T12:57:15.472Z,98377.77
2022-11-01T13:04:59.440Z,98369.52
2022-11-01T13:12:17.436Z,98372.66
2022-11-01T13:24:15.789Z,98373.02
2022-11-01T13:36:13.522Z,98381.45
2022-11-01T13:43:18.104Z,98376.77
2022-11-01T13:52:01.530Z,98378.80
2022-11-01T13:54:40.670Z,98377.92
2022-11-01T13:57:17.414Z,98378.87
2022-11-01T13:59:57.438Z,98375.46
2022-11-01T14:02:53.451Z,98377.83
2022-11-01T14:05:38.606Z,98371.72
2022-11-01T14:08:32.549Z,98374.71
2022-11-01T14:11:04.427Z,98379.27
2022-11-01T14:13:40.206Z,98384.83
2022-11-01T14:16:29.866Z,98387.04
2022-11-01T14:19:22.795Z,98391.02
2022-11-01T14:21:58.136Z,98396.80
2022-11-01T14:24:35.156Z,98401.70
2022-11-01T14:27:23.077Z,98402.63
2022-11-01T14:29:58.399Z,98406.45
2022-11-01T14:32:32.797Z,98412.88
2022-11-01T14:35:26.270Z,98420.71
2022-11-01T14:41:55.999Z,98428.89
2022-11-01T14:49:19.080Z,98433.86
2022-11-01T15:05:17.453Z,98454.45
2022-11-01T15:13:08.802Z,98466.05
2022-11-01T15:20:52.041Z,98474.03
2022-11-01T15:28:29.639Z,98477.17
2022-11-01T15:53:57.669Z,98494.39
2022-11-01T16:01:15.747Z,98498.27
2022-11-01T16:04:49.782Z,98498.75
2022-11-01T16:07:45.044Z,98500.63
2022-11-01T16:14:44.566Z,98518.23
2022-11-01T16:26:33.845Z,98526.36
2022-11-01T16:34:18.351Z,98528.59
2022-11-01T16:36:50.370Z,98533.91
2022-11-01T16:39:58.154Z,98532.55
2022-11-01T16:42:37.163Z,98536.60
2022-11-01T16:49:29.104Z,98538.10
2022-11-01T16:52:01.097Z,98538.73
2022-11-01T16:54:33.175Z,98540.09
2022-11-01T16:58:16.940Z,98539.66
2022-11-01T17:10:19.262Z,98551.98
2022-11-01T17:12:51.462Z,98549.13
2022-11-01T17:16:06.112Z,98551.08
2022-11-01T17:23:15.847Z,98562.60
2022-11-01T17:30:58.438Z,98568.08
2022-11-01T17:39:06.562Z,98574.23
2022-11-01T17:41:45.644Z,98580.14
2022-11-01T17:44:19.296Z,98581.02
2022-11-01T17:46:51.679Z,98584.20
2022-11-01T17:50:07.830Z,98587.63
2022-11-01T17:52:47.399Z,98583.91
2022-11-01T17:55:19.509Z,98581.60
2022-11-01T17:57:58.037Z,98582.98
2022-11-01T18:00:30.150Z,98583.35
2022-11-01T18:43:47.965Z,98587.14
2022-11-01T18:49:30.315Z,98591.79
2022-11-01T18:53:09.591Z,98590.16
2022-11-01T18:55:41.777Z,98590.69
2022-11-01T18:59:40.701Z,98592.34
2022-11-01T19:02:22.757Z,98594.41
2022-11-01T19:05:36.665Z,98597.59
2022-11-01T19:13:37.591Z,98597.13
2022-11-01T19:24:51.178Z,98611.91
2022-11-01T19:27:30.507Z,98610.56
2022-11-01T19:35:02.519Z,98611.39
2022-11-01T19:37:37.439Z,98615.75
2022-11-01T19:41:01.789Z,98616.23
2022-11-01T19:43:35.308Z,98615.77
2022-11-01T19:51:11.037Z,98623.24
2022-11-01T19:54:02.477Z,98624.71
2022-11-01T19:56:34.691Z,98626.45
2022-11-01T20:00:10.047Z,98626.06
2022-11-01T20:02:43.980Z,98628.34
2022-11-01T20:19:17.394Z,98641.86
2022-11-01T20:22:17.280Z,98648.11
2022-11-01T20:25:38.269Z,98648.93
2022-11-01T20:37:40.346Z,98656.27
2022-11-01T20:41:04.155Z,98658.59
2022-11-01T20:43:42.276Z,98663.21
2022-11-01T20:46:43.754Z,98669.23
2022-11-01T20:49:15.855Z,98670.33
2022-11-01T20:51:47.904Z,98673.16
2022-11-01T20:54:23.881Z,98672.84
2022-11-01T20:56:55.921Z,98674.05
2022-11-01T20:59:34.302Z,98674.83
2022-11-01T21:02:47.045Z,98679.63
2022-11-01T21:05:27.532Z,98682.54
2022-11-01T21:08:26.330Z,98690.79
2022-11-01T21:12:01.587Z,98687.35
2022-11-01T21:14:40.310Z,98682.27
2022-11-01T21:21:46.988Z,98685.23
2022-11-01T21:26:11.334Z,98687.27
2022-11-01T21:29:31.213Z,98690.13
2022-11-01T21:32:03.519Z,98696.25
2022-11-01T21:34:36.222Z,98693.58
2022-11-01T21:37:15.124Z,98689.48
2022-11-01T21:39:47.490Z,98691.90
2022-11-01T21:42:41.584Z,98690.85
2022-11-01T21:49:41.685Z,98688.24
2022-11-01T21:53:22.223Z,98687.50
2022-11-01T22:00:30.509Z,98679.86
2022-11-01T22:03:03.498Z,98684.48
2022-11-01T22:05:42.307Z,98679.60
2022-11-01T22:08:14.300Z,98679.65
2022-11-01T22:10:52.383Z,98679.27
2022-11-01T22:13:24.389Z,98684.38
2022-11-01T22:16:03.345Z,98679.55
2022-11-01T22:18:35.400Z,98679.37
2022-11-01T22:21:26.391Z,98680.11
2022-11-01T22:28:28.875Z,98675.81
2022-11-01T22:31:00.983Z,98674.45
2022-11-01T22:38:38.997Z,98672.13
2022-11-01T22:45:25.395Z,98658.01
2022-11-01T22:48:03.809Z,98658.37
2022-11-01T22:55:28.381Z,98660.43
2022-11-01T22:58:52.196Z,98667.92
2022-11-01T23:01:34.373Z,98667.52
2022-11-01T23:09:26.535Z,98663.80
2022-11-01T23:12:17.652Z,98667.79
2022-11-01T23:15:55.730Z,98672.31
2022-11-01T23:18:37.580Z,98674.98
2022-11-01T23:22:02.319Z,98678.34
2022-11-01T23:24:40.655Z,98683.09
2022-11-01T23:32:06.153Z,98691.02
2022-11-01T23:34:44.561Z,98691.70
2022-11-01T23:41:38.975Z,98692.22
2022-11-01T23:49:19.058Z,98695.46
2022-11-01T23:51:51.309Z,98691.80
2022-11-01T23:54:35.068Z,98687.52
2022-11-01T23:57:13.295Z,98691.12
2022-11-01T23:59:45.145Z,98687.30
